createdAt,value
2023-03-11T00:01:12.481Z,6.34
2023-03-11T00:03:40.973Z,6.34
2023-03-11T00:06:09.445Z,6.34
2023-03-11T00:08:38.453Z,6.33
2023-03-11T00:11:10.200Z,6.32
2023-03-11T00:13:41.557Z,6.28
2023-03-11T00:16:10.303Z,6.24
2023-03-11T00:18:40.361Z,6.20
2023-03-11T00:21:15.316Z,6.20
2023-03-11T00:23:43.776Z,6.23
2023-03-11T00:26:12.595Z,6.21
2023-03-11T00:28:41.262Z,6.19
2023-03-11T00:31:13.685Z,6.16
2023-03-11T00:34:01.976Z,6.13
2023-03-11T00:36:31.840Z,6.07
2023-03-11T00:39:02.371Z,6.05
2023-03-11T00:41:30.802Z,6.02
2023-03-11T00:43:59.492Z,6.00
2023-03-11T00:46:28.977Z,6.00
2023-03-11T00:48:58.917Z,6.04
2023-03-11T00:51:28.524Z,6.05
2023-03-11T00:53:57.010Z,6.05
2023-03-11T00:56:25.898Z,6.03
2023-03-11T00:58:56.045Z,6.02
2023-03-11T01:01:24.524Z,6.00
2023-03-11T01:03:53.088Z,6.00
2023-03-11T01:06:22.525Z,6.00
2023-03-11T01:08:51.383Z,6.00
2023-03-11T01:11:22.937Z,6.02
2023-03-11T01:13:51.625Z,6.07
2023-03-11T01:16:21.621Z,6.09
2023-03-11T01:18:52.073Z,6.11
2023-03-11T01:21:20.759Z,6.10
2023-03-11T01:23:49.548Z,6.09
2023-03-11T01:26:18.037Z,6.09
2023-03-11T01:28:47.332Z,6.08
2023-03-11T01:31:16.165Z,5.99
2023-03-11T01:33:45.014Z,6.04
2023-03-11T01:36:13.599Z,6.00
2023-03-11T01:38:42.183Z,6.03
2023-03-11T01:41:11.819Z,6.06
2023-03-11T01:43:42.029Z,6.07
2023-03-11T01:46:16.201Z,6.02
2023-03-11T01:48:51.818Z,5.98
2023-03-11T01:51:27.441Z,6.00
2023-03-11T01:54:04.720Z,6.00
2023-03-11T01:56:34.027Z,5.98
2023-03-11T01:59:02.836Z,5.97
2023-03-11T02:01:31.760Z,5.91
2023-03-11T02:04:04.082Z,6.04
2023-03-11T02:06:33.999Z,6.07
2023-03-11T02:09:03.200Z,6.09
2023-03-11T02:11:33.830Z,6.09
2023-03-11T02:14:04.807Z,6.08
2023-03-11T02:16:34.259Z,6.07
2023-03-11T02:19:13.035Z,6.05
2023-03-11T02:21:41.591Z,5.98
2023-03-11T02:24:19.498Z,5.94
2023-03-11T02:27:00.066Z,5.98
2023-03-11T02:29:32.340Z,6.07
2023-03-11T02:32:06.822Z,6.08
2023-03-11T02:34:37.117Z,6.11
2023-03-11T02:37:07.154Z,6.13
2023-03-11T02:39:37.632Z,6.15
2023-03-11T02:42:15.946Z,6.16
2023-03-11T02:44:45.964Z,6.17
2023-03-11T02:47:14.252Z,6.17
2023-03-11T02:49:42.931Z,6.17
2023-03-11T02:52:13.353Z,6.19
2023-03-11T02:54:41.839Z,6.21
2023-03-11T02:57:10.726Z,6.20
2023-03-11T02:59:40.648Z,6.18
2023-03-11T03:02:09.946Z,6.11
2023-03-11T03:04:40.269Z,6.04
2023-03-11T03:07:08.750Z,6.03
2023-03-11T03:09:39.593Z,6.02
2023-03-11T03:12:08.690Z,6.05
2023-03-11T03:14:37.992Z,6.11
2023-03-11T03:17:06.844Z,6.13
2023-03-11T03:19:35.677Z,6.11
2023-03-11T03:22:05.179Z,6.09
2023-03-11T03:24:34.586Z,6.07
2023-03-11T03:27:05.838Z,6.03
2023-03-11T03:29:34.838Z,5.99
2023-03-11T03:32:03.709Z,5.99
2023-03-11T03:34:32.824Z,6.04
2023-03-11T03:37:01.314Z,6.05
2023-03-11T03:39:30.744Z,6.03
2023-03-11T03:41:59.802Z,6.01
2023-03-11T03:44:31.664Z,5.94
2023-03-11T03:47:00.779Z,5.88
2023-03-11T03:49:29.449Z,5.87
2023-03-11T03:51:58.137Z,5.85
2023-03-11T03:54:31.231Z,5.87
2023-03-11T03:57:01.562Z,5.92
2023-03-11T03:59:30.353Z,5.95
2023-03-11T04:02:00.378Z,5.95
2023-03-11T04:04:30.805Z,5.88
2023-03-11T04:06:59.381Z,5.81
2023-03-11T04:09:30.025Z,5.81
2023-03-11T04:12:00.139Z,5.80
2023-03-11T04:14:29.691Z,5.83
2023-03-11T04:17:04.409Z,5.88
2023-03-11T04:19:34.292Z,5.87
2023-03-11T04:22:02.773Z,5.84
2023-03-11T04:24:34.231Z,5.80
2023-03-11T04:27:02.814Z,5.72
2023-03-11T04:29:32.428Z,5.65
2023-03-11T04:32:00.900Z,5.62
2023-03-11T04:34:31.328Z,5.65
2023-03-11T04:37:01.650Z,5.65
2023-03-11T04:39:32.908Z,5.61
2023-03-11T04:42:04.061Z,5.61
2023-03-11T04:44:35.693Z,5.54
2023-03-11T04:47:07.588Z,5.49
2023-03-11T04:49:36.556Z,5.54
2023-03-11T04:52:05.330Z,5.63
2023-03-11T04:54:33.931Z,5.67
2023-03-11T04:57:02.307Z,5.69
2023-03-11T04:59:31.449Z,5.70
2023-03-11T05:02:00.104Z,5.71
2023-03-11T05:04:29.017Z,5.69
2023-03-11T05:06:57.987Z,5.70
2023-03-11T05:09:28.212Z,5.70
2023-03-11T05:11:56.826Z,5.67
2023-03-11T05:14:27.318Z,5.66
2023-03-11T05:16:57.234Z,5.65
2023-03-11T05:19:32.076Z,5.64
2023-03-11T05:22:03.141Z,5.67
2023-03-11T05:24:32.304Z,5.70
2023-03-11T05:27:05.116Z,5.69
2023-03-11T05:29:35.825Z,5.67
2023-03-11T05:32:05.553Z,5.64
2023-03-11T05:34:34.329Z,5.66
2023-03-11T05:37:03.437Z,5.72
2023-03-11T05:39:37.955Z,5.75
2023-03-11T05:42:08.177Z,5.74
2023-03-11T05:44:36.775Z,5.74
2023-03-11T05:47:05.453Z,5.71
2023-03-11T05:49:34.451Z,5.74
2023-03-11T05:52:03.750Z,5.78
2023-03-11T05:54:33.049Z,5.77
2023-03-11T05:57:05.945Z,5.76
2023-03-11T05:59:35.743Z,5.76
2023-03-11T06:02:06.074Z,5.74
2023-03-11T06:04:35.908Z,5.76
2023-03-11T06:07:04.880Z,5.81
2023-03-11T06:09:37.161Z,5.81
2023-03-11T06:12:06.802Z,5.82
2023-03-11T06:14:48.967Z,5.83
2023-03-11T06:17:17.751Z,5.81
2023-03-11T06:19:46.539Z,5.82
2023-03-11T06:22:15.126Z,5.86
2023-03-11T06:24:43.507Z,5.90
2023-03-11T06:27:13.425Z,5.94
2023-03-11T06:29:43.039Z,5.94
2023-03-11T06:32:11.615Z,5.95
2023-03-11T06:34:40.405Z,6.00
2023-03-11T06:37:08.993Z,6.08
2023-03-11T06:39:38.504Z,6.12
2023-03-11T06:42:10.499Z,6.14
2023-03-11T06:44:39.661Z,6.13
2023-03-11T06:47:08.039Z,6.15
2023-03-11T06:49:41.142Z,6.18
2023-03-11T06:52:10.040Z,6.26
2023-03-11T06:54:39.430Z,6.31
2023-03-11T06:57:09.077Z,6.32
2023-03-11T06:59:38.030Z,6.31
2023-03-11T07:02:11.020Z,6.32
2023-03-11T07:04:40.328Z,6.32
2023-03-11T07:07:08.806Z,6.27
2023-03-11T07:11:50.621Z,6.41
2023-03-11T07:14:25.549Z,6.39
2023-03-11T07:16:56.554Z,6.38
2023-03-11T07:19:33.997Z,6.40
2023-03-11T07:22:02.465Z,6.43
2023-03-11T07:24:31.050Z,6.45
2023-03-11T07:26:59.434Z,6.44
2023-03-11T07:29:27.915Z,6.43
2023-03-11T07:31:56.310Z,6.44
2023-03-11T07:34:25.903Z,6.45
2023-03-11T07:36:56.230Z,6.42
2023-03-11T07:39:24.889Z,6.42
2023-03-11T07:41:53.296Z,6.44
2023-03-11T07:44:21.780Z,6.51
2023-03-11T07:46:50.260Z,6.56
2023-03-11T07:49:21.917Z,6.55
2023-03-11T07:51:51.527Z,6.52
2023-03-11T07:54:19.905Z,6.56
2023-03-11T07:56:50.537Z,6.55
2023-03-11T07:59:18.928Z,6.61
2023-03-11T08:01:47.557Z,6.59
2023-03-11T08:04:17.302Z,6.61
2023-03-11T08:06:47.108Z,6.64
2023-03-11T08:09:15.509Z,6.64
2023-03-11T08:11:44.710Z,6.63
2023-03-11T08:14:13.299Z,6.61
2023-03-11T08:16:42.495Z,6.64
2023-03-11T08:19:12.511Z,6.69
2023-03-11T08:21:41.012Z,6.70
2023-03-11T08:24:11.734Z,6.70
2023-03-11T08:26:41.042Z,6.66
2023-03-11T08:29:11.478Z,6.64
2023-03-11T08:31:39.945Z,6.65
2023-03-11T08:34:10.504Z,6.68
2023-03-11T08:36:40.089Z,6.68
2023-03-11T08:39:08.581Z,6.74
2023-03-11T08:41:37.260Z,6.79
2023-03-11T08:44:05.856Z,6.78
2023-03-11T08:46:36.325Z,6.76
2023-03-11T08:49:05.990Z,6.80
2023-03-11T08:51:34.766Z,6.79
2023-03-11T08:54:10.006Z,6.75
2023-03-11T08:56:39.819Z,6.75
2023-03-11T08:59:08.920Z,6.81
2023-03-11T09:01:38.226Z,6.79
2023-03-11T09:04:07.003Z,6.69
2023-03-11T09:06:37.338Z,6.67
2023-03-11T09:09:06.016Z,6.73
2023-03-11T09:11:37.691Z,6.77
2023-03-11T09:14:12.416Z,6.79
2023-03-11T09:16:43.343Z,6.86
2023-03-11T09:19:11.723Z,6.90
2023-03-11T09:21:40.211Z,6.88
2023-03-11T09:24:11.659Z,6.87
2023-03-11T09:26:45.980Z,6.89
2023-03-11T09:29:14.664Z,6.86
2023-03-11T09:31:43.260Z,6.81
2023-03-11T09:34:15.039Z,6.83
2023-03-11T09:36:44.528Z,6.84
2023-03-11T09:39:13.110Z,6.74
2023-03-11T09:41:59.502Z,6.81
2023-03-11T09:44:42.636Z,6.80
2023-03-11T09:47:22.684Z,6.70
2023-03-11T09:50:03.772Z,6.77
2023-03-11T09:52:40.742Z,6.82
2023-03-11T09:55:49.473Z,6.81
2023-03-11T09:58:36.901Z,6.83
2023-03-11T10:01:29.277Z,6.89
2023-03-11T10:04:24.241Z,6.86
2023-03-11T10:06:53.276Z,6.75
2023-03-11T10:09:29.731Z,6.72
2023-03-11T10:12:17.237Z,6.70
2023-03-11T10:14:58.722Z,6.65
2023-03-11T10:17:33.249Z,6.66
2023-03-11T10:20:13.221Z,6.75
2023-03-11T10:22:57.653Z,6.81
2023-03-11T10:25:29.514Z,6.85
2023-03-11T10:28:21.553Z,6.90
2023-03-11T10:30:52.901Z,7.01
2023-03-11T10:33:38.075Z,7.01
2023-03-11T10:36:09.820Z,7.01
2023-03-11T10:38:42.587Z,7.02
2023-03-11T10:41:21.036Z,7.08
2023-03-11T10:43:54.856Z,7.07
2023-03-11T10:46:26.938Z,7.03
2023-03-11T10:48:55.493Z,7.07
2023-03-11T10:51:31.659Z,7.14
2023-03-11T10:54:00.678Z,7.14
2023-03-11T10:56:36.199Z,7.07
2023-03-11T10:59:19.296Z,7.06
2023-03-11T11:02:01.528Z,6.99
2023-03-11T11:04:36.795Z,7.04
2023-03-11T11:07:35.663Z,7.03
2023-03-11T11:10:22.883Z,7.04
2023-03-11T11:13:01.015Z,6.99
2023-03-11T11:15:37.262Z,7.01
2023-03-11T11:18:27.759Z,7.07
2023-03-11T11:21:14.265Z,7.08
2023-03-11T11:24:00.464Z,7.01
2023-03-11T11:26:29.662Z,7.06
2023-03-11T11:29:10.020Z,7.08
2023-03-11T11:31:50.284Z,7.10
2023-03-11T11:34:33.816Z,7.09
2023-03-11T11:37:05.889Z,7.11
2023-03-11T11:39:52.123Z,7.13
2023-03-11T11:42:20.872Z,7.15
2023-03-11T11:44:56.833Z,7.16
2023-03-11T11:47:30.532Z,7.22
2023-03-11T11:50:01.401Z,7.28
2023-03-11T11:52:44.788Z,7.27
2023-03-11T11:55:25.585Z,7.27
2023-03-11T11:57:54.057Z,7.33
2023-03-11T12:00:26.226Z,7.39
2023-03-11T12:03:37.696Z,7.44
2023-03-11T12:06:18.588Z,7.45
2023-03-11T12:08:56.383Z,7.48
2023-03-11T12:11:28.461Z,7.47
2023-03-11T12:14:18.648Z,7.45
2023-03-11T12:17:01.986Z,7.48
2023-03-11T12:19:40.395Z,7.47
2023-03-11T12:22:46.768Z,7.39
2023-03-11T12:25:22.622Z,7.53
2023-03-11T12:28:09.537Z,7.58
2023-03-11T12:30:42.221Z,7.67
2023-03-11T12:33:24.427Z,7.73
2023-03-11T12:35:57.380Z,7.77
2023-03-11T12:38:33.288Z,7.80
2023-03-11T12:41:08.319Z,7.88
2023-03-11T12:43:38.735Z,7.92
2023-03-11T12:46:14.464Z,7.94
2023-03-11T12:49:09.698Z,7.94
2023-03-11T12:51:40.178Z,7.99
2023-03-11T12:54:31.464Z,8.05
2023-03-11T12:57:18.672Z,8.08
2023-03-11T13:00:03.036Z,8.10
2023-03-11T13:03:10.088Z,8.17
2023-03-11T13:05:54.059Z,8.23
2023-03-11T13:08:55.108Z,8.21
2023-03-11T13:11:33.924Z,8.19
2023-03-11T13:14:32.423Z,8.25
2023-03-11T13:17:26.708Z,8.31
2023-03-11T13:19:56.395Z,8.29
2023-03-11T13:22:54.194Z,8.24
2023-03-11T13:25:50.119Z,8.31
2023-03-11T13:28:47.583Z,8.39
2023-03-11T13:31:40.946Z,8.41
2023-03-11T13:34:43.946Z,8.43
2023-03-11T13:37:30.663Z,8.51
2023-03-11T13:40:20.334Z,8.56
2023-03-11T13:42:52.915Z,8.56
2023-03-11T13:45:24.536Z,8.56
2023-03-11T13:47:53.056Z,8.63
2023-03-11T13:50:35.468Z,8.72
2023-03-11T13:53:08.664Z,8.75
2023-03-11T13:55:47.078Z,8.76
2023-03-11T13:58:19.349Z,8.77
2023-03-11T14:00:52.828Z,8.84
2023-03-11T14:03:25.631Z,8.89
2023-03-11T14:06:03.259Z,8.92
2023-03-11T14:08:38.539Z,8.91
2023-03-11T14:11:10.946Z,8.91
2023-03-11T14:13:44.038Z,8.97
2023-03-11T14:16:30.822Z,8.97
2023-03-11T14:19:12.540Z,8.98
2023-03-11T14:21:44.710Z,8.96
2023-03-11T14:24:30.909Z,9.01
2023-03-11T14:27:01.486Z,9.09
2023-03-11T14:29:39.957Z,9.11
2023-03-11T14:32:32.258Z,9.07
2023-03-11T14:35:00.704Z,9.05
2023-03-11T14:37:36.098Z,9.16
2023-03-11T14:40:22.329Z,9.25
2023-03-11T14:42:54.186Z,9.26
2023-03-11T14:45:25.494Z,9.27
2023-03-11T14:48:20.029Z,9.34
2023-03-11T14:50:49.858Z,9.41
2023-03-11T14:53:19.972Z,9.41
2023-03-11T14:55:56.128Z,9.45
2023-03-11T14:58:38.946Z,9.46
2023-03-11T15:01:27.930Z,9.51
2023-03-11T15:04:00.384Z,9.56
2023-03-11T15:06:29.884Z,9.54
2023-03-11T15:09:02.613Z,9.54
2023-03-11T15:11:32.895Z,9.54
2023-03-11T15:14:25.753Z,9.62
2023-03-11T15:16:56.802Z,9.71
2023-03-11T15:19:28.868Z,9.71
2023-03-11T15:22:04.716Z,9.71
2023-03-11T15:24:35.356Z,9.68
2023-03-11T15:27:06.189Z,9.71
2023-03-11T15:29:40.203Z,9.74
2023-03-11T15:32:25.807Z,9.72
2023-03-11T15:35:27.137Z,9.71
2023-03-11T15:38:20.820Z,9.68
2023-03-11T15:40:58.016Z,9.71
2023-03-11T15:43:31.291Z,9.72
2023-03-11T15:46:01.954Z,9.73
2023-03-11T15:48:31.520Z,9.69
2023-03-11T15:51:00.540Z,9.61
2023-03-11T15:53:30.248Z,9.61
2023-03-11T15:56:07.248Z,9.64
2023-03-11T15:58:39.605Z,9.65
2023-03-11T16:01:09.713Z,9.64
2023-03-11T16:03:39.390Z,9.68
2023-03-11T16:06:08.015Z,9.73
2023-03-11T16:08:37.205Z,9.72
2023-03-11T16:11:05.993Z,9.70
2023-03-11T16:13:36.932Z,9.67
2023-03-11T16:16:06.124Z,9.61
2023-03-11T16:18:36.048Z,9.63
2023-03-11T16:21:11.903Z,9.68
2023-03-11T16:23:51.235Z,9.72
2023-03-11T16:26:21.057Z,9.76
2023-03-11T16:28:49.536Z,9.78
2023-03-11T16:31:18.064Z,9.87
2023-03-11T16:33:48.344Z,9.96
2023-03-11T16:36:16.826Z,10.01
2023-03-11T16:38:50.015Z,10.07
2023-03-11T16:41:18.944Z,10.09
2023-03-11T16:43:47.449Z,10.07
2023-03-11T16:46:15.949Z,10.11
2023-03-11T16:48:44.357Z,10.17
2023-03-11T16:51:16.017Z,10.18
2023-03-11T16:53:44.713Z,10.18
2023-03-11T16:56:15.644Z,10.18
2023-03-11T16:58:48.525Z,10.18
2023-03-11T17:01:22.044Z,10.18
2023-03-11T17:03:52.264Z,10.18
2023-03-11T17:06:21.042Z,10.18
2023-03-11T17:08:53.430Z,10.16
2023-03-11T17:11:22.868Z,10.15
2023-03-11T17:13:51.609Z,10.12
2023-03-11T17:16:20.243Z,10.15
2023-03-11T17:18:50.008Z,10.21
2023-03-11T17:21:18.658Z,10.22
2023-03-11T17:23:47.485Z,10.20
2023-03-11T17:26:16.997Z,10.17
2023-03-11T17:28:47.011Z,10.12
2023-03-11T17:31:16.027Z,10.14
2023-03-11T17:33:45.301Z,10.21
2023-03-11T17:36:16.172Z,10.17
2023-03-11T17:38:46.576Z,10.13
2023-03-11T17:41:17.215Z,10.16
2023-03-11T17:43:45.679Z,10.18
2023-03-11T17:46:18.018Z,10.23
2023-03-11T17:48:47.414Z,10.29
2023-03-11T17:51:21.270Z,10.30
2023-03-11T17:53:50.107Z,10.28
2023-03-11T17:56:22.015Z,10.25
2023-03-11T17:58:52.032Z,10.22
2023-03-11T18:01:22.561Z,10.26
2023-03-11T18:03:51.887Z,10.31
2023-03-11T18:06:20.993Z,10.32
2023-03-11T18:08:55.385Z,10.31
2023-03-11T18:11:26.905Z,10.28
2023-03-11T18:13:55.624Z,10.24
2023-03-11T18:16:28.937Z,10.20
2023-03-11T18:18:57.399Z,10.26
2023-03-11T18:21:28.233Z,10.25
2023-03-11T18:24:00.255Z,10.18
2023-03-11T18:26:29.717Z,10.11
2023-03-11T18:28:59.634Z,10.06
2023-03-11T18:31:29.954Z,9.98
2023-03-11T18:34:05.395Z,9.97
2023-03-11T18:36:34.937Z,9.95
2023-03-11T18:39:05.127Z,9.89
2023-03-11T18:41:35.361Z,9.82
2023-03-11T18:44:10.170Z,9.73
2023-03-11T18:46:41.825Z,9.62
2023-03-11T18:49:12.183Z,9.62
2023-03-11T18:51:41.349Z,9.58
2023-03-11T18:54:10.352Z,9.46
2023-03-11T18:56:38.835Z,9.34
2023-03-11T18:59:08.841Z,9.22
2023-03-11T19:01:37.299Z,9.16
2023-03-11T19:04:06.023Z,9.07
2023-03-11T19:06:34.803Z,8.96
2023-03-11T19:09:04.119Z,8.86
2023-03-11T19:11:34.863Z,8.87
2023-03-11T19:14:04.658Z,8.86
2023-03-11T19:16:33.123Z,8.75
2023-03-11T19:19:05.412Z,8.66
2023-03-11T19:21:35.846Z,8.68
2023-03-11T19:24:05.862Z,8.71
2023-03-11T19:29:24.531Z,8.64
2023-03-11T19:31:54.966Z,8.65
2023-03-11T19:34:23.441Z,8.70
2023-03-11T19:36:52.133Z,8.70
2023-03-11T19:39:21.020Z,8.64
2023-03-11T19:41:49.502Z,8.62
2023-03-11T19:44:20.646Z,8.64
2023-03-11T19:46:50.482Z,8.60
2023-03-11T19:49:18.845Z,8.55
2023-03-11T19:51:50.776Z,8.52
2023-03-11T19:54:19.690Z,8.53
2023-03-11T19:56:50.853Z,8.54
2023-03-11T19:59:19.387Z,8.50
2023-03-11T20:01:48.008Z,8.46
2023-03-11T20:04:16.913Z,8.47
2023-03-11T20:06:45.467Z,8.46
2023-03-11T20:09:16.454Z,8.43
2023-03-11T20:11:46.178Z,8.36
2023-03-11T20:14:15.944Z,8.37
2023-03-11T20:16:44.398Z,8.37
2023-03-11T20:19:13.524Z,8.31
2023-03-11T20:21:44.640Z,8.29
2023-03-11T20:24:20.132Z,8.32
2023-03-11T20:26:51.124Z,8.27
2023-03-11T20:29:19.840Z,8.21
2023-03-11T20:31:48.386Z,8.19
2023-03-11T20:34:17.134Z,8.20
2023-03-11T20:36:49.385Z,8.17
2023-03-11T20:39:17.775Z,8.11
2023-03-11T20:41:46.295Z,8.09
2023-03-11T20:44:14.833Z,8.08
2023-03-11T20:46:44.377Z,8.04
2023-03-11T20:49:12.961Z,7.97
2023-03-11T20:51:44.170Z,7.97
2023-03-11T20:54:15.599Z,7.98
2023-03-11T20:56:45.555Z,7.94
2023-03-11T20:59:16.672Z,7.89
2023-03-11T21:01:47.022Z,7.88
2023-03-11T21:04:16.887Z,7.87
2023-03-11T21:06:52.667Z,7.80
2023-03-11T21:09:21.312Z,7.71
2023-03-11T21:11:50.098Z,7.65
2023-03-11T21:14:19.069Z,7.64
2023-03-11T21:16:48.687Z,7.59
2023-03-11T21:19:17.229Z,7.50
2023-03-11T21:21:48.209Z,7.46
2023-03-11T21:24:16.765Z,7.46
2023-03-11T21:26:46.393Z,7.37
2023-03-11T21:29:14.905Z,7.27
2023-03-11T21:31:43.487Z,7.23
2023-03-11T21:34:12.676Z,7.20
2023-03-11T21:36:46.996Z,7.08
2023-03-11T21:39:15.838Z,6.99
2023-03-11T21:41:44.302Z,6.96
2023-03-11T21:44:12.739Z,6.93
2023-03-11T21:46:42.460Z,6.87
2023-03-11T21:49:12.765Z,6.82
2023-03-11T21:51:43.056Z,6.78
2023-03-11T21:54:12.819Z,6.71
2023-03-11T21:56:41.955Z,6.64
2023-03-11T21:59:10.885Z,6.58
2023-03-11T22:01:39.727Z,6.49
2023-03-11T22:04:08.521Z,6.38
2023-03-11T22:06:37.121Z,6.34
2023-03-11T22:09:07.162Z,6.29
2023-03-11T22:11:35.669Z,6.19
2023-03-11T22:14:04.437Z,6.10
2023-03-11T22:16:33.289Z,6.06
2023-03-11T22:19:04.599Z,5.97
2023-03-11T22:21:33.641Z,5.87
2023-03-11T22:24:02.026Z,5.83
2023-03-11T22:26:33.167Z,5.82
2023-03-11T22:29:03.868Z,5.77
2023-03-11T22:31:32.711Z,5.72
2023-03-11T22:34:01.498Z,5.74
2023-03-11T22:36:30.894Z,5.73
2023-03-11T22:39:01.422Z,5.69
2023-03-11T22:41:30.461Z,5.70
2023-03-11T22:44:02.995Z,5.74
2023-03-11T22:46:31.683Z,5.72
2023-03-11T22:49:00.076Z,5.65
2023-03-11T22:51:32.037Z,5.64
2023-03-11T22:54:00.710Z,5.65
2023-03-11T22:56:29.306Z,5.62
2023-03-11T22:58:57.988Z,5.55
2023-03-11T23:01:26.568Z,5.56
2023-03-11T23:03:57.022Z,5.56
2023-03-11T23:06:25.585Z,5.52
2023-03-11T23:08:53.960Z,5.48
2023-03-11T23:11:22.546Z,5.51
2023-03-11T23:13:51.574Z,5.51
2023-03-11T23:16:21.661Z,5.48
2023-03-11T23:18:55.069Z,5.44
2023-03-11T23:21:25.997Z,5.47
2023-03-11T23:23:54.489Z,5.45
2023-03-11T23:26:23.065Z,5.37
2023-03-11T23:28:51.872Z,5.35
2023-03-11T23:31:21.140Z,5.35
2023-03-11T23:33:50.772Z,5.31
2023-03-11T23:36:20.699Z,5.24
2023-03-11T23:38:54.795Z,5.20
2023-03-11T23:41:24.117Z,5.10
2023-03-11T23:43:52.576Z,5.11
2023-03-11T23:46:21.208Z,5.02
2023-03-11T23:48:49.614Z,5.00
2023-03-11T23:51:18.128Z,4.99
2023-03-11T23:53:49.065Z,4.94
2023-03-11T23:56:19.095Z,4.87
2023-03-11T23:58:48.795Z,4.85
